Time;durP1;ratioP1;P1;durP2;ratioP2;P2;SDS_P1;SDS_P2;PMS_P1;PMS_P2;Temp;Humidity;BMP_temperature;BMP_pressure;BME280_temperature;BME280_humidity;BME280_pressure;Samples;Min_cycle;Max_cycle;Signal;HPM_P1;HPM_P2
2021/12/07 00:01:05;;;;;;;18.93;16.90;;;;;;;4.27;58.65;97325.38;8425754;28;20230;-68
2021/12/07 00:05:09;;;;;;;17.23;15.03;;;;;;;4.62;57.48;97320.91;8451427;28;20278;-68
2021/12/07 00:09:15;;;;;;;18.47;15.43;;;;;;;4.78;57.17;97329.00;8452063;28;20233;-68
2021/12/07 00:13:21;;;;;;;20.57;17.17;;;;;;;4.44;57.64;97324.06;8451866;28;20248;-68
2021/12/07 00:17:24;;;;;;;18.67;16.63;;;;;;;3.95;58.87;97317.78;8451721;28;20234;-67
2021/12/07 00:21:27;;;;;;;16.93;15.13;;;;;;;4.14;58.79;97313.81;8451614;28;20513;-68
2021/12/07 00:25:30;;;;;;;19.33;15.37;;;;;;;3.73;60.40;97313.25;8451575;28;20535;-67
2021/12/07 00:29:34;;;;;;;16.17;14.50;;;;;;;3.95;58.63;97310.09;8451579;28;20232;-68
2021/12/07 00:33:44;;;;;;;16.17;14.47;;;;;;;4.15;58.24;97301.81;8442272;28;20544;-67
2021/12/07 00:37:53;;;;;;;15.87;14.17;;;;;;;3.25;61.75;97290.63;8451056;28;20234;-67
2021/12/07 00:41:58;;;;;;;16.47;14.77;;;;;;;3.61;60.88;97268.34;8451476;28;20252;-68
2021/12/07 00:46:03;;;;;;;16.23;14.60;;;;;;;3.42;60.99;97251.81;8450751;28;20242;-67
2021/12/07 00:50:07;;;;;;;16.17;14.47;;;;;;;3.31;61.71;97240.16;8449460;28;20226;-68
2021/12/07 00:54:11;;;;;;;16.07;14.07;;;;;;;4.33;58.58;97255.16;8449282;28;20234;-67
2021/12/07 00:58:18;;;;;;;15.37;13.03;;;;;;;4.38;57.77;97260.97;8448834;28;20238;-68
2021/12/07 01:02:23;;;;;;;17.80;15.33;;;;;;;4.10;58.64;97260.97;8448678;28;20218;-67
2021/12/07 01:06:30;;;;;;;16.90;15.10;;;;;;;4.08;58.86;97255.06;8449127;28;20245;-67
2021/12/07 01:28:04;;;;;;;17.83;16.03;;;;;;;3.87;59.63;97238.59;8448321;28;20237;-67
2021/12/07 01:32:18;;;;;;;16.00;14.40;;;;;;;3.88;59.52;97230.00;8447523;28;20226;-68
2021/12/07 01:40:51;;;;;;;16.07;14.33;;;;;;;3.58;61.05;97216.38;8447868;28;20229;-68
2021/12/07 01:49:59;;;;;;;16.10;14.50;;;;;;;3.54;60.98;97190.00;8402022;28;20202;-67
2021/12/07 02:02:44;;;;;;;15.83;14.20;;;;;;;3.99;59.20;97186.97;8447393;28;20418;-67
2021/12/07 02:06:47;;;;;;;15.00;13.37;;;;;;;3.97;60.02;97187.91;8447433;28;20431;-68
2021/12/07 02:10:55;;;;;;;16.67;14.43;;;;;;;4.02;59.12;97188.63;8447339;28;20234;-68
2021/12/07 02:14:58;;;;;;;15.90;14.17;;;;;;;4.21;59.17;97196.59;8447162;28;20244;-68
2021/12/07 02:19:02;;;;;;;16.23;14.63;;;;;;;4.25;58.86;97191.31;8447494;28;20237;-68
2021/12/07 02:23:06;;;;;;;15.70;14.03;;;;;;;4.60;57.83;97188.50;8446122;28;20234;-68
2021/12/07 02:27:09;;;;;;;15.80;14.10;;;;;;;4.36;58.58;97185.00;8446322;28;20259;-68
2021/12/07 02:31:12;;;;;;;16.47;14.77;;;;;;;4.33;57.75;97183.38;8446675;28;20245;-68
2021/12/07 02:35:22;;;;;;;18.30;14.07;;;;;;;4.66;57.79;97181.47;8446268;28;20256;-68
2021/12/07 02:39:31;;;;;;;14.97;13.47;;;;;;;4.93;57.13;97188.25;8446298;28;20238;-68
2021/12/07 02:43:36;;;;;;;15.97;14.37;;;;;;;4.94;57.04;97185.63;8446273;28;20545;-68
2021/12/07 02:47:40;;;;;;;15.50;14.00;;;;;;;4.85;57.89;97184.22;8445999;28;20241;-68
2021/12/07 02:51:43;;;;;;;16.50;14.57;;;;;;;4.50;59.23;97173.41;8446045;28;20249;-68
2021/12/07 02:55:47;;;;;;;16.53;14.83;;;;;;;4.68;59.43;97173.69;8445939;28;20233;-68
2021/12/07 02:59:58;;;;;;;17.53;15.67;;;;;;;4.72;59.94;97164.16;8445922;28;20241;-68
2021/12/07 03:04:06;;;;;;;17.00;15.27;;;;;;;4.76;60.21;97174.28;8445838;28;20438;-68
2021/12/07 03:08:41;;;;;;;17.40;15.60;;;;;;;4.97;59.67;97172.72;8445600;28;20395;-68
2021/12/07 03:26:05;;;;;;;17.60;15.77;;;;;;;4.53;61.66;97177.59;8446083;28;20234;-68
2021/12/07 03:30:10;;;;;;;17.10;15.30;;;;;;;4.34;61.97;97161.13;8445433;28;20223;-68
2021/12/07 03:34:14;;;;;;;17.37;15.57;;;;;;;4.51;62.42;97156.28;8450373;28;20229;-68
2021/12/07 03:38:17;;;;;;;19.10;17.10;;;;;;;4.34;62.47;97166.25;8452389;28;20237;-68
2021/12/07 03:42:20;;;;;;;19.50;17.53;;;;;;;4.26;62.67;97158.81;8452381;28;20230;-68
2021/12/07 03:46:25;;;;;;;18.17;16.07;;;;;;;4.43;62.79;97145.47;8451953;28;20233;-68
2021/12/07 03:50:28;;;;;;;19.60;17.60;;;;;;;4.50;61.62;97152.06;8451986;28;20397;-68
2021/12/07 03:54:31;;;;;;;19.90;17.97;;;;;;;4.53;61.96;97146.81;8451853;28;20420;-68
2021/12/07 03:58:34;;;;;;;17.63;15.87;;;;;;;4.92;61.51;97156.63;8451529;28;20520;-68
2021/12/07 04:02:40;;;;;;;19.27;17.27;;;;;;;4.20;63.48;97148.78;8451452;28;20226;-68
2021/12/07 04:06:43;;;;;;;20.67;18.47;;;;;;;4.54;62.12;97153.63;8450921;28;20233;-68
2021/12/07 04:10:47;;;;;;;18.73;17.00;;;;;;;4.78;61.76;97156.25;8450584;28;20241;-68
2021/12/07 04:14:50;;;;;;;18.37;16.57;;;;;;;5.02;61.07;97152.00;8450695;28;20315;-68
2021/12/07 04:18:54;;;;;;;20.50;18.43;;;;;;;4.63;61.86;97155.91;8450593;28;20237;-68
2021/12/07 04:22:58;;;;;;;19.80;17.90;;;;;;;4.68;61.55;97138.63;8450508;28;20234;-68
2021/12/07 04:27:01;;;;;;;20.63;18.67;;;;;;;4.32;63.10;97145.78;8450074;28;20230;-68
2021/12/07 04:31:04;;;;;;;21.83;19.63;;;;;;;4.15;63.64;97142.94;8450346;28;20234;-68
2021/12/07 04:35:10;;;;;;;18.90;16.90;;;;;;;4.83;61.83;97144.13;8449584;28;20230;-69
2021/12/07 04:39:13;;;;;;;19.30;17.23;;;;;;;4.72;62.49;97146.22;8449657;28;20242;-69
2021/12/07 04:43:16;;;;;;;19.30;17.27;;;;;;;4.82;61.89;97132.19;8449218;28;20236;-68
2021/12/07 04:47:25;;;;;;;18.67;16.70;;;;;;;5.13;61.08;97139.66;8449429;28;20238;-68
2021/12/07 05:00:14;;;;;;;15.33;13.83;;;;;;;4.97;62.24;97134.22;8448755;28;20317;-69
2021/12/07 05:04:21;;;;;;;14.73;13.30;;;;;;;5.17;61.29;97133.50;8449057;28;20246;-68
2021/12/07 05:08:36;;;;;;;16.07;14.47;;;;;;;4.94;61.95;97139.47;8449128;28;20241;-68
2021/12/07 05:12:54;;;;;;;13.97;12.67;;;;;;;5.28;61.26;97145.97;8449055;28;20237;-69
2021/12/07 05:17:14;;;;;;;15.53;14.03;;;;;;;5.22;61.04;97141.88;8448734;28;20525;-68
2021/12/07 05:26:06;;;;;;;13.70;12.40;;;;;;;5.55;60.39;97153.53;8415027;28;20310;-68
2021/12/07 05:34:52;;;;;;;11.90;10.80;;;;;;;5.55;60.86;97154.38;8448260;28;20222;-68
2021/12/07 05:38:55;;;;;;;9.87;8.90;;;;;;;5.67;60.32;97155.63;8447874;28;20245;-68
2021/12/07 05:43:01;;;;;;;8.53;6.73;;;;;;;5.65;60.56;97158.28;8447590;28;20230;-68
2021/12/07 05:47:05;;;;;;;6.90;4.17;;;;;;;5.66;60.47;97156.56;8447800;28;20572;-68
2021/12/07 05:51:08;;;;;;;5.07;3.13;;;;;;;5.76;60.68;97155.31;8447271;28;20222;-68
2021/12/07 05:55:11;;;;;;;5.63;4.10;;;;;;;5.73;60.92;97162.28;8429355;28;20513;-69
2021/12/07 05:59:16;;;;;;;10.13;8.50;;;;;;;5.65;60.96;97167.72;8431793;28;20242;-68
2021/12/07 06:03:18;;;;;;;9.57;6.50;;;;;;;5.74;60.66;97169.13;8426056;28;20233;-68
2021/12/07 06:07:21;;;;;;;3.57;2.73;;;;;;;5.71;61.22;97179.50;8427211;28;20237;-69
2021/12/07 06:11:25;;;;;;;4.30;2.47;;;;;;;5.80;61.12;97185.13;8446692;28;20537;-68
2021/12/07 06:15:32;;;;;;;3.20;2.17;;;;;;;5.79;61.11;97188.59;8445031;28;20241;-69
2021/12/07 06:19:35;;;;;;;5.93;2.00;;;;;;;5.64;61.74;97191.75;8434452;28;20328;-69
2021/12/07 06:23:39;;;;;;;3.80;2.00;;;;;;;5.77;61.73;97184.38;8446836;28;20230;-68
2021/12/07 06:27:43;;;;;;;4.90;2.10;;;;;;;5.77;61.59;97186.97;8443461;28;20575;-68
2021/12/07 06:31:48;;;;;;;4.00;1.97;;;;;;;5.68;62.06;97177.88;8446860;28;20245;-68
2021/12/07 06:35:56;;;;;;;2.73;1.90;;;;;;;5.56;62.19;97180.88;8446289;28;20238;-67
2021/12/07 06:39:59;;;;;;;4.43;2.00;;;;;;;5.41;62.89;97188.28;8446393;28;20237;-68
2021/12/07 06:44:02;;;;;;;4.97;1.90;;;;;;;5.60;62.71;97191.00;8446471;28;20230;-68
2021/12/07 06:48:07;;;;;;;5.43;1.90;;;;;;;5.74;61.90;97189.66;8446152;28;20549;-68
2021/12/07 06:52:10;;;;;;;6.63;2.17;;;;;;;5.62;62.31;97196.94;8445802;28;20525;-68
2021/12/07 06:56:13;;;;;;;3.67;1.80;;;;;;;5.62;62.16;97198.66;8445718;28;20237;-68
2021/12/07 07:00:17;;;;;;;4.73;1.90;;;;;;;5.53;62.77;97216.97;8446066;28;20264;-68
2021/12/07 07:04:21;;;;;;;9.27;5.03;;;;;;;5.73;62.47;97219.66;8445818;28;20424;-68
2021/12/07 07:08:24;;;;;;;6.57;2.40;;;;;;;5.85;61.60;97237.19;8449835;28;20233;-68
2021/12/07 07:12:28;;;;;;;7.13;2.70;;;;;;;5.77;62.27;97241.78;8452905;28;20233;-68
2021/12/07 07:16:30;;;;;;;6.60;4.00;;;;;;;6.01;61.47;97254.63;8452392;28;20229;-68
2021/12/07 07:20:35;;;;;;;5.13;2.40;;;;;;;5.88;61.94;97247.38;8452519;28;20226;-68
2021/12/07 07:24:39;;;;;;;3.10;2.33;;;;;;;5.99;61.67;97254.69;8452695;28;20242;-68
2021/12/07 07:28:42;;;;;;;4.23;2.03;;;;;;;5.99;61.69;97262.41;8452521;28;20233;-68
2021/12/07 07:32:46;;;;;;;4.73;2.20;;;;;;;5.88;61.76;97259.34;8452201;28;20399;-68
2021/12/07 07:36:50;;;;;;;5.57;1.87;;;;;;;5.81;61.68;97268.19;8451780;28;20238;-68
2021/12/07 07:40:53;;;;;;;3.97;1.90;;;;;;;5.85;61.95;97277.47;8452096;28;20242;-68
2021/12/07 07:44:56;;;;;;;6.03;2.43;;;;;;;5.86;62.21;97279.13;8451912;28;20234;-68
2021/12/07 07:49:00;;;;;;;3.90;1.90;;;;;;;5.96;61.58;97277.94;8451696;28;20230;-68
2021/12/07 07:53:04;;;;;;;4.83;1.80;;;;;;;6.06;61.08;97289.56;8451961;28;20413;-69
2021/12/07 07:57:07;;;;;;;6.47;2.30;;;;;;;6.10;61.25;97286.88;8451399;28;20226;-69
2021/12/07 08:01:11;;;;;;;4.47;2.30;;;;;;;6.16;61.08;97291.78;8450933;28;20234;-69
2021/12/07 08:05:14;;;;;;;3.30;1.80;;;;;;;6.11;60.99;97291.97;8451326;28;20245;-69
2021/12/07 08:09:19;;;;;;;8.70;2.40;;;;;;;6.07;60.74;97298.09;8451146;28;20238;-68
2021/12/07 08:13:22;;;;;;;5.57;2.47;;;;;;;6.04;60.80;97298.22;8451458;28;20230;-68
2021/12/07 08:17:25;;;;;;;5.73;2.30;;;;;;;6.21;60.55;97300.19;8450881;28;20234;-68
2021/12/07 08:21:28;;;;;;;7.60;3.40;;;;;;;6.09;61.03;97300.63;8450247;28;20486;-68
2021/12/07 08:25:34;;;;;;;8.60;3.00;;;;;;;6.11;60.10;97312.53;8450850;28;20225;-68
2021/12/07 08:29:37;;;;;;;6.67;2.53;;;;;;;6.16;60.75;97318.31;8451089;28;20230;-68
2021/12/07 08:33:40;;;;;;;7.17;2.40;;;;;;;6.14;60.92;97325.25;8450595;28;20259;-68
2021/12/07 08:37:46;;;;;;;7.87;2.53;;;;;;;6.21;60.31;97321.56;8450373;28;20249;-68
2021/12/07 08:41:50;;;;;;;8.13;2.40;;;;;;;6.17;60.51;97321.72;8450545;28;20236;-68
2021/12/07 08:45:54;;;;;;;7.73;2.30;;;;;;;6.21;60.71;97319.00;8449630;28;20249;-68
2021/12/07 08:49:57;;;;;;;5.87;2.20;;;;;;;6.12;60.64;97314.19;8449122;28;20234;-68
2021/12/07 08:54:16;;;;;;;6.17;2.13;;;;;;;6.04;61.02;97324.75;8449486;28;20234;-68
2021/12/07 09:02:41;;;;;;;6.27;2.83;;;;;;;6.28;60.29;97339.34;8445617;28;20234;-66
2021/12/07 09:06:45;;;;;;;8.50;2.60;;;;;;;6.31;60.64;97341.81;8450476;28;20558;-66
2021/12/07 09:10:48;;;;;;;6.50;2.57;;;;;;;6.08;61.52;97346.06;8450292;28;20562;-67
2021/12/07 09:14:53;;;;;;;5.97;2.10;;;;;;;6.35;60.43;97344.19;8450271;28;20241;-67
2021/12/07 09:18:56;;;;;;;6.53;2.47;;;;;;;6.39;60.28;97355.22;8436389;28;20230;-67
2021/12/07 09:22:59;;;;;;;6.53;2.50;;;;;;;6.35;60.45;97363.94;8432270;28;20237;-66
2021/12/07 09:27:03;;;;;;;5.73;2.50;;;;;;;6.26;60.65;97360.81;8421513;28;20241;-67
2021/12/07 09:31:09;;;;;;;5.97;2.30;;;;;;;6.26;60.53;97372.81;8418462;28;20226;-68
2021/12/07 09:35:14;;;;;;;6.83;2.30;;;;;;;6.24;61.37;97379.75;8416550;28;20396;-67
2021/12/07 09:39:21;;;;;;;6.07;2.60;;;;;;;6.26;61.28;97378.81;8431750;28;20252;-67
2021/12/07 09:43:24;;;;;;;9.07;2.50;;;;;;;6.28;60.87;97385.63;8431734;28;20222;-67
2021/12/07 09:47:29;;;;;;;23.03;3.73;;;;;;;7.70;75.88;97389.50;8431386;28;20230;-74
2021/12/07 09:51:32;;;;;;;9.43;2.70;;;;;;;8.21;61.89;97385.59;8430751;28;20232;-80
2021/12/07 09:55:36;;;;;;;7.90;2.33;;;;;;;9.07;58.26;97375.69;8430949;28;20225;-75
2021/12/07 09:59:39;;;;;;;8.97;2.60;;;;;;;8.31;55.64;97373.13;8430991;28;20238;-75
2021/12/07 10:03:43;;;;;;;8.40;2.60;;;;;;;8.01;56.42;97370.16;8433051;28;20239;-73
2021/12/07 10:07:47;;;;;;;6.50;2.43;;;;;;;8.30;56.05;97375.78;8430887;28;20242;-73
2021/12/07 10:11:51;;;;;;;20.07;9.97;;;;;;;8.25;56.27;97386.31;8430557;28;20281;-74
2021/12/07 10:15:56;;;;;;;9.63;2.90;;;;;;;8.05;56.76;97388.91;8430546;28;20232;-73
2021/12/07 10:20:02;;;;;;;7.70;2.87;;;;;;;8.57;55.13;97392.63;8433176;28;20222;-73
2021/12/07 10:24:08;;;;;;;9.10;2.70;;;;;;;8.18;56.40;97395.22;8447889;28;20257;-76
2021/12/07 10:28:25;;;;;;;6.93;2.63;;;;;;;7.70;56.83;97401.56;8447518;28;20228;-74
2021/12/07 10:32:28;;;;;;;7.83;2.67;;;;;;;8.21;56.06;97403.66;8447904;28;20296;-75
2021/12/07 10:36:38;;;;;;;8.03;2.50;;;;;;;8.75;54.48;97397.88;8447430;28;20230;-75
2021/12/07 10:40:57;;;;;;;11.33;2.60;;;;;;;8.29;55.06;97399.91;8447402;28;20246;-74
2021/12/07 10:45:01;;;;;;;8.77;2.63;;;;;;;8.47;54.81;97395.69;8445066;28;20234;-74
2021/12/07 10:49:27;;;;;;;10.40;3.03;;;;;;;8.29;54.90;97402.50;8447398;28;20556;-74
2021/12/07 10:53:36;;;;;;;9.87;3.20;;;;;;;8.25;55.43;97403.53;8442440;28;20222;-72
2021/12/07 10:57:40;;;;;;;10.20;2.80;;;;;;;8.40;54.50;97401.09;8426137;28;20234;-73
2021/12/07 11:01:46;;;;;;;9.80;3.00;;;;;;;8.68;54.11;97401.63;8445793;28;20244;-73
2021/12/07 11:05:53;;;;;;;7.47;2.87;;;;;;;8.46;54.16;97400.03;8447156;28;20319;-74
2021/12/07 11:10:05;;;;;;;10.00;2.80;;;;;;;8.16;54.86;97410.75;8446467;28;20230;-73
2021/12/07 11:14:09;;;;;;;8.93;3.23;;;;;;;8.32;54.60;97400.63;8446495;28;20293;-73
2021/12/07 11:18:12;;;;;;;8.77;3.60;;;;;;;8.11;55.00;97397.25;8446469;28;20234;-73
2021/12/07 11:22:17;;;;;;;7.10;2.87;;;;;;;8.05;54.78;97396.66;8446674;28;20230;-73
2021/12/07 11:30:42;;;;;;;7.67;2.90;;;;;;;7.80;55.70;97429.47;8446796;28;20397;-74
2021/12/07 11:34:46;;;;;;;7.30;2.73;;;;;;;7.75;55.57;97415.09;8446817;28;20544;-67
2021/12/07 11:38:50;;;;;;;11.17;3.00;;;;;;;7.47;56.04;97423.97;8446273;28;20308;-66
2021/12/07 11:42:54;;;;;;;8.30;3.40;;;;;;;7.56;55.65;97425.34;8446812;28;20322;-66
2021/12/07 11:46:59;;;;;;;7.97;3.10;;;;;;;7.32;56.56;97422.00;8446555;28;20529;-66
2021/12/07 11:51:03;;;;;;;10.13;4.10;;;;;;;7.51;56.31;97440.16;8446261;28;20608;-66
2021/12/07 11:55:06;;;;;;;11.20;3.60;;;;;;;7.51;56.58;97440.16;8450170;28;20222;-68
2021/12/07 11:59:12;;;;;;;9.60;4.73;;;;;;;7.69;55.78;97436.81;8452082;28;20256;-65
2021/12/07 12:03:21;;;;;;;8.17;3.00;;;;;;;7.34;56.29;97445.97;8452128;28;20245;-66
2021/12/07 12:07:25;;;;;;;7.93;2.80;;;;;;;7.48;55.73;97446.25;8430206;28;20233;-66
2021/12/07 12:11:35;;;;;;;7.07;2.70;;;;;;;7.36;55.87;97442.41;8418299;28;20521;-67
2021/12/07 12:16:04;;;;;;;8.63;3.63;;;;;;;7.28;55.87;97430.75;8418248;28;20227;-66
2021/12/07 12:20:31;;;;;;;8.43;3.17;;;;;;;7.36;55.26;97442.41;8417544;28;20238;-67
2021/12/07 12:24:39;;;;;;;8.03;3.00;;;;;;;7.49;55.90;97447.94;8417971;28;20229;-67
2021/12/07 12:28:47;;;;;;;8.30;3.13;;;;;;;7.72;55.72;97451.31;8417984;28;20538;-67
2021/12/07 12:32:54;;;;;;;12.73;4.07;;;;;;;7.69;55.19;97441.13;8417718;28;20242;-66
2021/12/07 12:37:01;;;;;;;15.83;8.73;;;;;;;7.75;55.15;97430.56;8417355;28;20238;-67
2021/12/07 12:41:06;;;;;;;11.57;4.00;;;;;;;7.71;55.13;97445.34;8417617;28;20237;-67
2021/12/07 12:45:19;;;;;;;10.23;3.13;;;;;;;7.46;55.32;97430.00;8417307;28;20226;-67
2021/12/07 12:49:24;;;;;;;7.13;2.87;;;;;;;7.80;54.26;97408.84;8417356;28;20485;-67
2021/12/07 12:53:30;;;;;;;10.00;3.10;;;;;;;7.78;54.47;97402.09;8417046;28;20230;-67
2021/12/07 12:57:49;;;;;;;8.33;3.40;;;;;;;7.80;54.32;97413.16;8417159;28;20249;-72
2021/12/07 13:01:57;;;;;;;10.17;2.93;;;;;;;7.87;54.04;97419.75;8421087;28;20335;-74
2021/12/07 13:06:02;;;;;;;9.17;2.77;;;;;;;7.68;54.56;97432.56;8450242;28;20234;-73
2021/12/07 13:10:05;;;;;;;9.57;3.10;;;;;;;7.99;54.90;97420.97;8450439;28;20237;-74
2021/12/07 13:14:13;;;;;;;8.73;2.90;;;;;;;8.02;54.29;97411.34;8449890;28;20238;-74
2021/12/07 13:18:20;;;;;;;15.23;3.07;;;;;;;7.64;54.82;97418.13;8450177;28;20244;-74
2021/12/07 13:22:24;;;;;;;7.77;2.90;;;;;;;7.87;54.13;97424.06;8442948;28;20521;-71
2021/12/07 13:26:27;;;;;;;8.20;3.00;;;;;;;7.98;54.09;97421.88;8423844;28;20431;-73
2021/12/07 13:30:37;;;;;;;10.70;3.03;;;;;;;8.01;54.11;97430.31;8415456;28;20316;-73
2021/12/07 13:34:40;;;;;;;8.27;2.80;;;;;;;8.16;53.64;97415.06;8418262;28;20236;-72
2021/12/07 13:38:44;;;;;;;11.60;3.00;;;;;;;8.16;53.34;97433.97;8431251;28;20238;-72
2021/12/07 13:42:50;;;;;;;10.73;3.40;;;;;;;8.25;53.10;97417.25;8431571;28;20319;-71
2021/12/07 13:46:54;;;;;;;8.33;2.83;;;;;;;8.10;53.64;97423.09;8431249;28;20225;-72
2021/12/07 13:50:57;;;;;;;8.57;2.97;;;;;;;8.16;53.61;97423.66;8431279;28;20236;-71
2021/12/07 13:55:06;;;;;;;8.87;2.30;;;;;;;8.20;53.56;97426.94;8434931;28;20226;-72
2021/12/07 13:59:11;;;;;;;8.97;2.90;;;;;;;8.11;54.09;97432.47;8414384;28;20424;-72
2021/12/07 14:03:15;;;;;;;9.40;2.70;;;;;;;8.11;53.70;97430.75;8430438;28;20241;-72
2021/12/07 14:07:23;;;;;;;13.40;5.00;;;;;;;7.87;54.08;97432.63;8437876;28;20408;-72
2021/12/07 14:11:27;;;;;;;7.33;2.70;;;;;;;7.88;53.70;97436.91;8448356;28;20242;-70
2021/12/07 14:15:34;;;;;;;8.33;3.23;;;;;;;8.03;53.34;97437.97;8433785;28;20233;-73
2021/12/07 14:19:37;;;;;;;8.77;3.80;;;;;;;8.11;53.66;97437.66;8447468;28;20230;-73
2021/12/07 14:23:42;;;;;;;7.53;3.00;;;;;;;8.16;53.40;97423.66;8448184;28;20230;-72
2021/12/07 14:27:47;;;;;;;8.03;2.93;;;;;;;8.19;53.69;97435.59;8448019;28;20245;-74
2021/12/07 14:31:52;;;;;;;9.00;3.17;;;;;;;8.22;53.43;97438.88;8448151;28;20240;-71
2021/12/07 14:35:57;;;;;;;8.53;3.27;;;;;;;8.19;53.40;97433.84;8447892;28;20241;-72
2021/12/07 14:40:00;;;;;;;8.77;3.53;;;;;;;8.22;53.54;97433.72;8432018;28;20234;-72
2021/12/07 14:44:05;;;;;;;11.47;3.43;;;;;;;8.25;53.92;97432.75;8428018;28;20222;-73
2021/12/07 14:48:09;;;;;;;9.73;3.13;;;;;;;8.25;53.92;97416.44;8429231;28;20211;-72
2021/12/07 14:52:20;;;;;;;14.00;3.37;;;;;;;8.29;53.75;97421.38;8429748;28;20593;-71
2021/12/07 14:56:25;;;;;;;9.23;3.13;;;;;;;7.80;54.04;97428.63;8429765;28;20222;-73
2021/12/07 15:00:30;;;;;;;9.20;3.40;;;;;;;7.78;54.53;97415.78;8414074;28;20311;-71
2021/12/07 15:04:33;;;;;;;10.73;3.57;;;;;;;7.81;55.02;97420.00;8439600;28;20414;-73
2021/12/07 15:08:38;;;;;;;12.67;5.10;;;;;;;7.78;55.10;97425.28;8423205;28;20230;-71
2021/12/07 15:12:50;;;;;;;9.63;5.17;;;;;;;7.76;55.35;97412.44;8446874;28;20233;-73
2021/12/07 15:16:57;;;;;;;9.23;3.57;;;;;;;8.09;53.87;97406.78;8432572;28;20234;-71
2021/12/07 15:21:00;;;;;;;12.80;7.60;;;;;;;7.97;53.93;97418.44;8412981;28;20234;-71
2021/12/07 15:25:05;;;;;;;12.10;6.70;;;;;;;8.05;54.39;97404.38;8413439;28;20231;-73
2021/12/07 15:29:10;;;;;;;10.57;5.10;;;;;;;7.96;54.54;97409.03;8415486;28;20256;-72
2021/12/07 15:33:14;;;;;;;9.27;4.23;;;;;;;7.79;54.87;97398.63;8423413;28;20235;-72
2021/12/07 15:37:19;;;;;;;9.27;4.17;;;;;;;7.94;54.61;97403.13;8419405;28;20231;-72
2021/12/07 15:41:22;;;;;;;22.47;13.80;;;;;;;7.77;54.94;97398.66;8419453;28;20437;-73
2021/12/07 15:45:31;;;;;;;26.93;18.33;;;;;;;7.85;54.81;97392.38;8419463;28;20254;-73
2021/12/07 15:49:38;;;;;;;19.50;12.27;;;;;;;7.80;55.07;97393.38;8435191;28;20233;-73
2021/12/07 15:53:41;;;;;;;11.40;4.50;;;;;;;7.61;55.15;97392.47;8437077;28;20226;-72
2021/12/07 15:57:46;;;;;;;11.20;4.20;;;;;;;7.69;54.71;97385.28;8436505;28;20237;-73
2021/12/07 16:01:51;;;;;;;12.63;4.80;;;;;;;7.68;54.95;97378.44;8435716;28;20222;-72
2021/12/07 16:05:58;;;;;;;11.83;5.33;;;;;;;7.64;54.14;97367.41;8434332;28;20229;-73
2021/12/07 16:10:06;;;;;;;11.13;5.17;;;;;;;7.52;54.63;97364.50;8434722;28;20249;-72
2021/12/07 16:14:10;;;;;;;12.80;6.10;;;;;;;7.57;54.28;97366.00;8434381;28;20287;-74
2021/12/07 16:18:13;;;;;;;10.80;5.70;;;;;;;7.61;54.14;97357.22;8440101;28;20230;-71
2021/12/07 16:22:18;;;;;;;12.30;6.80;;;;;;;7.59;54.28;97348.72;8444767;28;20230;-65
2021/12/07 16:26:23;;;;;;;12.00;6.43;;;;;;;7.59;54.16;97356.44;8433966;28;20226;-66
2021/12/07 16:30:26;;;;;;;12.80;7.47;;;;;;;7.55;53.56;97342.03;8433833;28;20791;-66
2021/12/07 16:34:29;;;;;;;14.83;7.37;;;;;;;7.42;53.66;97334.00;8433688;28;20529;-65
2021/12/07 16:38:52;;;;;;;26.60;13.57;;;;;;;7.43;53.63;97329.69;8433351;28;20279;-67
2021/12/07 16:42:57;;;;;;;19.27;11.10;;;;;;;7.30;53.60;97329.34;8427639;28;20404;-65
2021/12/07 16:47:02;;;;;;;36.73;23.13;;;;;;;7.47;53.68;97318.34;8432677;28;20223;-65
2021/12/07 16:51:05;;;;;;;28.43;16.97;;;;;;;7.46;53.74;97306.34;8428089;28;20406;-66
2021/12/07 16:55:12;;;;;;;37.27;24.27;;;;;;;7.41;53.28;97303.16;8432445;28;20218;-66
2021/12/07 16:59:15;;;;;;;26.67;16.43;;;;;;;7.41;53.36;97303.16;8433764;28;20419;-66
2021/12/07 17:03:18;;;;;;;17.27;11.47;;;;;;;7.33;53.23;97300.03;8433435;28;20230;-66
2021/12/07 17:07:21;;;;;;;14.43;8.07;;;;;;;7.33;53.29;97285.44;8432441;28;20263;-66
2021/12/07 17:11:25;;;;;;;12.83;6.93;;;;;;;7.32;53.28;97294.03;8432582;28;20222;-66
2021/12/07 17:15:29;;;;;;;40.30;26.53;;;;;;;7.11;53.19;97287.22;8432185;28;20514;-66
2021/12/07 17:19:31;;;;;;;13.43;7.43;;;;;;;6.93;54.07;97281.94;8432053;28;20234;-66
2021/12/07 17:23:35;;;;;;;12.33;6.80;;;;;;;6.72;54.41;97277.63;8432260;28;20222;-65
2021/12/07 17:27:40;;;;;;;9.83;6.60;;;;;;;6.73;54.21;97264.72;8432185;28;20226;-66
2021/12/07 17:31:43;;;;;;;12.20;7.20;;;;;;;7.00;53.82;97267.06;8429266;28;20234;-67
2021/12/07 17:35:46;;;;;;;13.03;6.90;;;;;;;7.03;53.90;97254.06;8433199;28;20231;-67
2021/12/07 17:39:50;;;;;;;19.60;10.80;;;;;;;6.89;53.65;97249.47;8415588;28;20245;-68
2021/12/07 17:43:55;;;;;;;17.20;10.80;;;;;;;6.66;54.75;97250.41;8415544;28;20230;-67
2021/12/07 17:47:59;;;;;;;16.93;7.37;;;;;;;6.39;54.88;97236.91;8415688;28;20333;-68
2021/12/07 17:52:04;;;;;;;17.17;8.23;;;;;;;6.34;55.12;97233.66;8418256;28;20235;-68
2021/12/07 17:56:08;;;;;;;14.43;7.93;;;;;;;6.64;54.60;97236.75;8426094;28;20227;-67
2021/12/07 18:00:19;;;;;;;14.57;7.73;;;;;;;6.75;54.07;97237.16;8439193;28;20237;-69
2021/12/07 18:04:22;;;;;;;18.97;13.67;;;;;;;6.00;56.19;97230.66;8419291;28;20230;-68
2021/12/07 18:08:26;;;;;;;18.33;10.73;;;;;;;6.00;55.72;97220.38;8432608;28;20238;-67
2021/12/07 18:12:29;;;;;;;19.00;11.20;;;;;;;6.22;55.11;97211.84;8438075;28;20521;-66
2021/12/07 18:16:43;;;;;;;15.30;8.70;;;;;;;6.36;55.17;97213.88;8414325;28;20238;-66
2021/12/07 18:20:46;;;;;;;18.27;11.03;;;;;;;6.55;55.02;97213.97;8414293;28;20235;-66
2021/12/07 18:24:49;;;;;;;16.70;9.97;;;;;;;5.98;56.46;97218.78;8414409;28;20415;-66
2021/12/07 18:29:07;;;;;;;14.97;8.47;;;;;;;6.30;55.49;97224.41;8413800;28;20251;-66
2021/12/07 18:33:12;;;;;;;20.47;10.67;;;;;;;6.39;54.73;97213.75;8414188;28;20234;-66
2021/12/07 18:37:15;;;;;;;15.70;10.10;;;;;;;6.15;55.42;97207.84;8414165;28;20234;-66
2021/12/07 18:41:23;;;;;;;15.53;9.83;;;;;;;6.10;56.01;97195.16;8414075;28;20242;-65
2021/12/07 18:45:26;;;;;;;18.87;10.83;;;;;;;5.97;56.58;97199.09;8415311;28;20242;-65
2021/12/07 18:49:31;;;;;;;21.63;11.77;;;;;;;5.98;56.45;97200.78;8430826;28;20230;-65
2021/12/07 18:53:34;;;;;;;17.97;10.13;;;;;;;5.53;57.29;97202.41;8414080;28;20249;-65
2021/12/07 18:57:37;;;;;;;29.67;10.30;;;;;;;8.40;71.68;97201.59;8438568;28;20233;-74
2021/12/07 19:01:41;;;;;;;22.30;13.37;;;;;;;7.44;54.16;97184.50;8446963;28;20558;-66
2021/12/07 19:05:46;;;;;;;21.13;10.67;;;;;;;6.40;54.46;97182.84;8446844;28;20285;-66
2021/12/07 19:09:49;;;;;;;20.20;12.70;;;;;;;6.33;55.22;97173.69;8439497;28;20229;-67
2021/12/07 19:13:52;;;;;;;20.87;11.77;;;;;;;6.36;55.23;97183.00;8429780;28;20237;-67
2021/12/07 19:17:58;;;;;;;16.50;9.40;;;;;;;6.02;56.27;97156.91;8429540;28;20223;-66
2021/12/07 19:22:03;;;;;;;19.90;11.17;;;;;;;5.74;57.31;97146.81;8429522;28;20233;-66
2021/12/07 19:26:06;;;;;;;16.83;9.83;;;;;;;5.22;58.69;97135.91;8429054;28;20241;-67
2021/12/07 19:30:12;;;;;;;15.83;9.17;;;;;;;5.13;58.15;97138.81;8429261;28;20259;-66
2021/12/07 19:34:15;;;;;;;18.17;9.33;;;;;;;5.43;58.61;97127.44;8430123;28;20237;-66
2021/12/07 19:38:21;;;;;;;18.13;10.63;;;;;;;5.46;58.28;97117.06;8428832;28;20242;-66
2021/12/07 19:42:26;;;;;;;20.73;11.67;;;;;;;5.47;57.79;97105.88;8428952;28;20226;-67
2021/12/07 19:46:29;;;;;;;21.63;12.47;;;;;;;5.47;57.36;97107.59;8428907;28;20426;-67
2021/12/07 19:50:36;;;;;;;15.53;10.03;;;;;;;5.00;58.64;97097.34;8428590;28;20237;-65
2021/12/07 19:54:42;;;;;;;19.20;10.67;;;;;;;4.81;59.48;97090.28;8428707;28;20237;-66
2021/12/07 19:58:48;;;;;;;14.87;8.67;;;;;;;4.83;59.70;97095.38;8429085;28;20236;-66
2021/12/07 20:02:51;;;;;;;15.40;8.07;;;;;;;4.68;59.85;97074.53;8428666;28;20234;-66
2021/12/07 20:06:56;;;;;;;15.90;7.93;;;;;;;4.24;61.68;97076.00;8428715;28;20237;-66
2021/12/07 20:11:01;;;;;;;17.23;9.03;;;;;;;4.55;60.00;97057.03;8428629;28;20521;-66
2021/12/07 20:15:05;;;;;;;15.37;8.83;;;;;;;4.56;59.66;97059.53;8430011;28;20226;-66
2021/12/07 20:19:10;;;;;;;15.57;8.03;;;;;;;4.31;61.32;97060.38;8434235;28;20225;-66
2021/12/07 20:23:14;;;;;;;15.37;8.27;;;;;;;4.62;60.25;97055.94;8434418;28;20229;-67
2021/12/07 20:27:19;;;;;;;15.43;9.33;;;;;;;4.79;59.25;97063.84;8433977;28;20238;-66
2021/12/07 20:31:24;;;;;;;18.13;10.73;;;;;;;4.55;60.10;97057.03;8434233;28;20230;-65